Time;durP1;ratioP1;P1;durP2;ratioP2;P2;SDS_P1;SDS_P2;PMS_P1;PMS_P2;Temp;Humidity;BMP_temperature;BMP_pressure;BME280_temperature;BME280_humidity;BME280_pressure;Samples;Min_cycle;Max_cycle;Signal;HPM_P1;HPM_P2
2021/06/29 00:00:46;;;;;;;1999.90;999.90;;;10.40;99.90;;;;;;6068483;23;20606;-47
2021/06/29 00:03:16;;;;;;;1999.90;999.90;;;10.40;99.90;;;;;;6068538;23;20153;-62
2021/06/29 00:05:45;;;;;;;1999.90;999.90;;;10.40;99.90;;;;;;6068152;23;20584;-45
2021/06/29 00:08:12;;;;;;;1999.90;999.90;;;10.50;99.90;;;;;;6068581;23;20153;-63
2021/06/29 00:10:39;;;;;;;1999.90;999.90;;;10.50;99.90;;;;;;6068523;23;20144;-56
2021/06/29 00:13:06;;;;;;;1999.90;999.90;;;10.40;99.90;;;;;;6068377;23;20211;-45
2021/06/29 00:15:33;;;;;;;1999.90;999.90;;;10.40;99.90;;;;;;6068290;23;20557;-63
2021/06/29 00:18:00;;;;;;;1999.90;999.90;;;10.40;99.90;;;;;;6068273;23;20223;-64
2021/06/29 00:20:27;;;;;;;1999.90;999.90;;;10.40;99.90;;;;;;6068458;23;20152;-45
2021/06/29 00:22:54;;;;;;;1999.90;999.90;;;10.40;99.90;;;;;;6068264;23;20588;-46
2021/06/29 00:25:21;;;;;;;1999.90;999.90;;;10.40;99.90;;;;;;6068012;23;20298;-60
2021/06/29 00:27:48;;;;;;;1999.90;999.90;;;10.30;99.90;;;;;;6068281;23;20148;-45
2021/06/29 00:30:16;;;;;;;1999.90;999.90;;;10.30;99.90;;;;;;6068224;23;20172;-45
2021/06/29 00:32:43;;;;;;;1999.90;999.90;;;10.30;99.90;;;;;;6068405;23;20279;-45
2021/06/29 00:35:11;;;;;;;1999.90;999.90;;;10.20;99.90;;;;;;6068205;23;20199;-61
2021/06/29 00:37:38;;;;;;;1999.90;999.90;;;10.20;99.90;;;;;;6068254;23;20240;-63
2021/06/29 00:40:07;;;;;;;1999.90;999.90;;;10.20;99.90;;;;;;6068162;23;20153;-57
2021/06/29 00:42:34;;;;;;;1999.90;999.90;;;10.20;99.90;;;;;;6068225;23;20223;-46
2021/06/29 00:45:01;;;;;;;1999.90;999.90;;;10.10;99.90;;;;;;6068153;23;20148;-62
2021/06/29 00:47:28;;;;;;;1999.90;999.90;;;10.10;99.90;;;;;;6068062;23;20176;-63
2021/06/29 00:49:55;;;;;;;1999.90;999.90;;;10.10;99.90;;;;;;6068062;23;20248;-63
2021/06/29 00:52:22;;;;;;;1999.90;999.90;;;10.10;99.90;;;;;;6068044;23;20144;-45
2021/06/29 00:54:50;;;;;;;1999.90;999.90;;;10.10;99.90;;;;;;6068005;23;20211;-63
2021/06/29 00:57:17;;;;;;;1999.90;999.90;;;10.10;99.90;;;;;;6068069;23;20227;-45
2021/06/29 00:59:44;;;;;;;1999.90;999.90;;;10.00;99.90;;;;;;6068122;23;20144;-63
2021/06/29 01:02:12;;;;;;;1999.90;999.90;;;10.00;99.90;;;;;;6067742;23;20152;-47
2021/06/29 01:04:42;;;;;;;1999.90;999.90;;;10.00;99.90;;;;;;6067858;23;20149;-63
2021/06/29 01:07:13;;;;;;;1999.90;999.90;;;10.00;99.90;;;;;;6067824;23;20185;-64
2021/06/29 01:09:41;;;;;;;1999.90;999.90;;;10.00;99.90;;;;;;6067927;23;20548;-61
2021/06/29 01:12:09;;;;;;;1999.90;999.90;;;10.00;99.90;;;;;;6067829;23;20171;-44
2021/06/29 01:14:36;;;;;;;1999.90;999.90;;;10.00;99.90;;;;;;6067931;23;20203;-48
2021/06/29 01:17:05;;;;;;;1999.90;999.90;;;10.00;99.90;;;;;;6067895;23;20144;-45
2021/06/29 01:19:39;;;;;;;1999.90;999.90;;;10.10;99.90;;;;;;6067851;23;20208;-45
2021/06/29 01:22:10;;;;;;;1999.90;999.90;;;10.10;99.90;;;;;;6068132;23;20141;-45
2021/06/29 01:24:37;;;;;;;1999.90;999.90;;;10.00;99.90;;;;;;6067882;23;20239;-45
2021/06/29 01:29:49;;;;;;;1999.90;999.90;;;10.10;99.90;;;;;;6067889;23;20184;-63
2021/06/29 01:32:18;;;;;;;1999.90;999.90;;;10.10;99.90;;;;;;6068069;23;20141;-53
2021/06/29 01:34:46;;;;;;;1999.90;999.90;;;10.10;99.90;;;;;;6067887;23;20496;-44
2021/06/29 01:37:15;;;;;;;1999.90;999.90;;;10.10;99.90;;;;;;6067766;23;20163;-45
2021/06/29 01:39:59;;;;;;;1999.90;999.90;;;10.10;99.90;;;;;;6067867;23;20623;-44
2021/06/29 01:42:26;;;;;;;1999.90;999.90;;;10.10;99.90;;;;;;6067747;23;20192;-63
2021/06/29 01:44:53;;;;;;;1999.90;999.90;;;10.10;99.90;;;;;;6067676;23;20610;-45
2021/06/29 01:47:51;;;;;;;1999.90;999.90;;;10.00;99.90;;;;;;6068019;23;20663;-45
2021/06/29 01:50:18;;;;;;;1999.90;999.90;;;10.00;99.90;;;;;;6066049;23;20465;-44
2021/06/29 01:52:46;;;;;;;1999.90;999.90;;;10.00;99.90;;;;;;6068074;23;20144;-46
2021/06/29 01:55:13;;;;;;;1999.90;999.90;;;9.90;99.90;;;;;;6067759;23;20181;-44
2021/06/29 01:57:43;;;;;;;1999.90;999.90;;;10.00;99.90;;;;;;6067789;23;20152;-62
2021/06/29 02:00:13;;;;;;;1999.90;999.90;;;10.00;99.90;;;;;;6067690;23;20536;-56
2021/06/29 02:02:40;;;;;;;1999.90;999.90;;;9.90;99.90;;;;;;6067519;23;20162;-61
2021/06/29 02:05:07;;;;;;;1999.90;999.90;;;9.90;99.90;;;;;;6067720;23;20155;-62
2021/06/29 02:07:34;;;;;;;1999.90;999.90;;;9.90;99.90;;;;;;6067506;23;20157;-43
2021/06/29 02:10:00;;;;;;;1999.90;999.90;;;9.90;99.90;;;;;;6067690;23;20156;-52
2021/06/29 02:12:27;;;;;;;1999.90;999.90;;;9.90;99.90;;;;;;6067697;23;20149;-61
2021/06/29 02:14:54;;;;;;;1999.90;999.90;;;9.90;99.90;;;;;;6043144;23;20523;-43
2021/06/29 02:17:21;;;;;;;1999.90;999.90;;;9.90;99.90;;;;;;6069615;23;20163;-46
2021/06/29 02:19:48;;;;;;;1999.90;999.90;;;9.90;99.90;;;;;;6044032;23;20507;-43
2021/06/29 02:22:15;;;;;;;1999.90;999.90;;;9.90;99.90;;;;;;6069505;23;20155;-61
2021/06/29 02:24:42;;;;;;;1999.90;999.90;;;9.90;99.90;;;;;;6069249;23;20187;-44
2021/06/29 02:27:08;;;;;;;1999.90;999.90;;;9.90;99.90;;;;;;6069341;23;20180;-43
2021/06/29 02:29:36;;;;;;;1999.90;999.90;;;9.90;99.90;;;;;;6069406;23;20147;-43
2021/06/29 02:32:03;;;;;;;1999.90;999.90;;;9.90;99.90;;;;;;6069373;23;20175;-60
2021/06/29 02:34:30;;;;;;;1999.90;999.90;;;9.90;99.90;;;;;;6069288;23;20155;-62
2021/06/29 02:36:56;;;;;;;1999.90;999.90;;;9.90;99.90;;;;;;6069327;23;20152;-47
2021/06/29 02:39:23;;;;;;;1999.90;999.90;;;9.90;99.90;;;;;;6069331;23;20228;-62
2021/06/29 02:41:50;;;;;;;1999.90;999.90;;;9.80;99.90;;;;;;6069434;23;20149;-63
2021/06/29 02:44:20;;;;;;;1999.90;999.90;;;9.90;99.90;;;;;;6069093;23;20152;-44
2021/06/29 02:46:47;;;;;;;1999.90;999.90;;;9.90;99.90;;;;;;6069020;23;20156;-59
2021/06/29 02:49:13;;;;;;;1999.90;999.90;;;9.90;99.90;;;;;;6069203;23;20149;-62
2021/06/29 02:51:41;;;;;;;1999.90;999.90;;;9.90;99.90;;;;;;6069207;23;20208;-61
2021/06/29 02:54:07;;;;;;;1999.90;999.90;;;9.80;99.90;;;;;;6069364;23;20160;-44
2021/06/29 02:56:37;;;;;;;1999.90;999.90;;;9.80;99.90;;;;;;6069003;23;20218;-63
2021/06/29 02:59:07;;;;;;;1999.90;999.90;;;9.80;99.90;;;;;;6069008;23;20191;-44
2021/06/29 03:01:34;;;;;;;1999.90;999.90;;;9.80;99.90;;;;;;6068859;23;20242;-62
2021/06/29 03:04:01;;;;;;;1999.90;999.90;;;9.80;99.90;;;;;;6068896;23;20157;-47
2021/06/29 03:06:28;;;;;;;1999.90;999.90;;;9.80;99.90;;;;;;6069013;23;20543;-45
2021/06/29 03:08:55;;;;;;;1999.90;999.90;;;9.80;99.90;;;;;;6069196;23;20156;-46
2021/06/29 03:11:22;;;;;;;1999.90;999.90;;;9.70;99.90;;;;;;6068914;23;20488;-45
2021/06/29 03:13:48;;;;;;;1999.90;999.90;;;9.70;99.90;;;;;;6068916;23;20594;-50
2021/06/29 03:16:15;;;;;;;1999.90;999.90;;;9.70;99.90;;;;;;6068700;23;20188;-52
2021/06/29 03:18:42;;;;;;;1999.90;999.90;;;9.70;99.90;;;;;;6068777;23;20183;-45
2021/06/29 03:21:10;;;;;;;1999.90;999.90;;;9.70;99.90;;;;;;6068911;23;20488;-63
2021/06/29 03:23:38;;;;;;;1999.90;999.90;;;9.70;99.90;;;;;;6068755;23;20215;-63
2021/06/29 03:26:05;;;;;;;1999.90;999.90;;;9.70;99.90;;;;;;6068163;23;20512;-63
2021/06/29 03:28:33;;;;;;;1999.90;999.90;;;9.70;99.90;;;;;;6068855;23;20148;-45
2021/06/29 03:31:00;;;;;;;1999.90;999.90;;;9.70;99.90;;;;;;6068774;23;20227;-45
2021/06/29 03:33:27;;;;;;;1999.90;999.90;;;9.80;99.90;;;;;;6069062;23;20453;-64
2021/06/29 03:35:54;;;;;;;1999.90;999.90;;;9.70;99.90;;;;;;6068702;23;20236;-64
2021/06/29 03:38:20;;;;;;;1999.90;999.90;;;9.80;99.90;;;;;;6068813;23;20212;-45
2021/06/29 03:40:47;;;;;;;1999.90;999.90;;;9.80;99.90;;;;;;6068812;23;20179;-62
2021/06/29 03:43:14;;;;;;;1999.90;999.90;;;9.80;99.90;;;;;;6068724;23;20155;-45
2021/06/29 03:45:41;;;;;;;1999.90;999.90;;;9.90;99.90;;;;;;6068752;23;20611;-52
2021/06/29 03:48:08;;;;;;;1999.90;999.90;;;10.00;99.90;;;;;;6068672;23;20148;-46
2021/06/29 03:50:35;;;;;;;1999.90;999.90;;;9.90;99.90;;;;;;6068713;23;20159;-62
2021/06/29 03:53:01;;;;;;;1999.90;999.90;;;9.90;99.90;;;;;;6068654;23;20204;-58
2021/06/29 03:55:29;;;;;;;1999.90;999.90;;;9.90;99.90;;;;;;6068619;23;20190;-64
2021/06/29 03:57:56;;;;;;;1999.90;999.90;;;9.90;99.90;;;;;;6068527;23;20164;-63
2021/06/29 04:00:24;;;;;;;1999.90;999.90;;;9.80;99.90;;;;;;6068437;23;20203;-46
2021/06/29 04:02:51;;;;;;;1999.90;999.90;;;9.90;99.90;;;;;;6068564;23;20148;-49
2021/06/29 04:05:18;;;;;;;1999.90;999.90;;;9.90;99.90;;;;;;6068533;23;20153;-45
2021/06/29 04:07:47;;;;;;;1999.90;999.90;;;9.80;99.90;;;;;;6068428;23;20146;-45
2021/06/29 04:10:14;;;;;;;1999.90;999.90;;;9.80;99.90;;;;;;6068429;23;20261;-45
2021/06/29 04:12:41;;;;;;;1999.90;999.90;;;9.90;99.90;;;;;;6068327;23;20485;-52
2021/06/29 04:15:09;;;;;;;1999.90;999.90;;;9.90;99.90;;;;;;6068356;23;20279;-46
2021/06/29 04:17:36;;;;;;;1999.90;999.90;;;9.90;99.90;;;;;;6068364;23;20580;-45
2021/06/29 04:20:05;;;;;;;1999.90;999.90;;;9.90;99.90;;;;;;6068509;23;20227;-45
2021/06/29 04:22:32;;;;;;;1999.90;999.90;;;9.90;99.90;;;;;;6068449;23;20219;-47
2021/06/29 04:24:59;;;;;;;1999.90;999.90;;;10.00;99.90;;;;;;6068289;23;20188;-65
2021/06/29 04:27:26;;;;;;;1999.90;999.90;;;10.00;99.90;;;;;;6068337;23;20149;-59
2021/06/29 04:29:53;;;;;;;1999.90;999.90;;;10.00;99.90;;;;;;6068310;23;20152;-45
2021/06/29 04:32:20;;;;;;;1999.90;999.90;;;9.90;99.90;;;;;;6068253;23;20180;-57
2021/06/29 04:34:47;;;;;;;1999.90;999.90;;;9.90;99.90;;;;;;6068159;23;20236;-64
2021/06/29 04:37:14;;;;;;;1999.90;999.90;;;9.90;99.90;;;;;;6068060;23;20222;-45
2021/06/29 04:39:43;;;;;;;1999.90;999.90;;;9.90;99.90;;;;;;6067910;23;20161;-47
2021/06/29 04:42:10;;;;;;;1999.90;999.90;;;10.00;99.90;;;;;;6068374;23;20256;-62
2021/06/29 04:44:39;;;;;;;1999.90;999.90;;;10.00;99.90;;;;;;6068161;23;20208;-46
2021/06/29 04:47:09;;;;;;;1999.90;999.90;;;10.00;99.90;;;;;;6067798;23;20158;-44
2021/06/29 04:49:37;;;;;;;1999.90;999.90;;;10.00;99.90;;;;;;6067989;23;20149;-55
2021/06/29 04:52:05;;;;;;;1999.90;999.90;;;10.00;99.90;;;;;;6068041;23;20167;-44
2021/06/29 04:54:32;;;;;;;1999.90;999.90;;;10.10;99.90;;;;;;6067924;23;20152;-44
2021/06/29 04:56:58;;;;;;;1999.90;999.90;;;10.10;99.90;;;;;;6068006;23;20163;-48
2021/06/29 04:59:25;;;;;;;1999.90;999.90;;;10.10;99.90;;;;;;6067559;23;20156;-44
2021/06/29 05:01:52;;;;;;;1999.90;999.90;;;10.10;99.90;;;;;;6067715;23;20577;-44
2021/06/29 05:04:19;;;;;;;1999.90;999.90;;;10.20;99.90;;;;;;6067721;23;20179;-58
2021/06/29 05:06:46;;;;;;;1999.90;999.90;;;10.20;99.90;;;;;;6067692;23;20148;-44
2021/06/29 05:09:12;;;;;;;1999.90;999.90;;;10.20;99.90;;;;;;6067720;23;20149;-44
2021/06/29 05:11:39;;;;;;;1999.90;999.90;;;10.20;99.90;;;;;;6067609;23;20176;-58
2021/06/29 05:14:08;;;;;;;1999.90;999.90;;;10.10;99.90;;;;;;6067882;23;20145;-43
2021/06/29 05:16:35;;;;;;;1999.90;999.90;;;10.20;99.90;;;;;;6067679;23;20192;-43
2021/06/29 05:19:02;;;;;;;1999.90;999.90;;;10.20;99.90;;;;;;6067432;23;20148;-43
2021/06/29 05:21:28;;;;;;;1999.90;999.90;;;10.20;99.90;;;;;;6067417;23;20247;-42
2021/06/29 05:23:55;;;;;;;1999.90;999.90;;;10.20;99.90;;;;;;6067270;23;20659;-43
2021/06/29 05:26:22;;;;;;;1999.90;999.90;;;10.20;99.90;;;;;;6067611;23;20167;-43
2021/06/29 05:28:49;;;;;;;1999.90;999.90;;;10.20;99.90;;;;;;6067610;23;20521;-43
2021/06/29 05:31:16;;;;;;;1999.90;999.90;;;10.20;99.90;;;;;;6067596;23;20232;-43
2021/06/29 05:33:42;;;;;;;1999.90;999.90;;;10.10;99.90;;;;;;6067420;23;20479;-43
2021/06/29 05:36:09;;;;;;;1999.90;999.90;;;10.10;99.90;;;;;;6067492;23;20185;-43
2021/06/29 05:38:36;;;;;;;1999.90;999.90;;;10.10;99.90;;;;;;6067569;23;20166;-43
2021/06/29 05:41:03;;;;;;;1999.90;999.90;;;10.10;99.90;;;;;;6067375;23;20149;-56
2021/06/29 05:43:30;;;;;;;1999.90;999.90;;;10.00;99.90;;;;;;6067531;23;20242;-43
2021/06/29 05:45:57;;;;;;;1999.90;999.90;;;10.10;99.90;;;;;;6067427;23;20160;-46
2021/06/29 05:48:28;;;;;;;1999.90;999.90;;;10.10;99.90;;;;;;6067196;23;20145;-43
2021/06/29 05:50:54;;;;;;;1999.90;999.90;;;10.10;99.90;;;;;;6069147;23;20208;-43
2021/06/29 05:53:21;;;;;;;1999.90;999.90;;;10.10;99.90;;;;;;6069258;23;20616;-48
2021/06/29 05:55:48;;;;;;;1999.90;999.90;;;10.10;99.90;;;;;;6069296;23;20627;-52
2021/06/29 05:58:15;;;;;;;1999.90;999.90;;;10.10;99.90;;;;;;6069317;23;20180;-44
2021/06/29 06:00:43;;;;;;;1999.90;999.90;;;10.10;99.90;;;;;;6069321;23;20573;-46
2021/06/29 06:03:10;;;;;;;1999.90;999.90;;;10.00;99.90;;;;;;6068623;23;20184;-42
2021/06/29 06:05:37;;;;;;;1999.90;999.90;;;9.90;99.90;;;;;;6069184;23;20652;-42
2021/06/29 06:08:04;;;;;;;1999.90;999.90;;;9.90;99.90;;;;;;6069072;23;20196;-45
2021/06/29 06:10:30;;;;;;;1999.90;999.90;;;9.90;99.90;;;;;;6068754;23;20148;-42
2021/06/29 06:12:57;;;;;;;1999.90;999.90;;;9.90;99.90;;;;;;6068660;23;20153;-43
2021/06/29 06:15:24;;;;;;;1999.90;999.90;;;10.00;99.90;;;;;;6068035;23;20355;-44
2021/06/29 06:18:24;;;;;;;1999.90;999.90;;;10.00;99.90;;;;;;6067145;23;20156;-48
2021/06/29 06:20:51;;;;;;;1999.90;999.90;;;10.10;99.90;;;;;;6068269;23;20164;-43
2021/06/29 06:23:18;;;;;;;1999.90;999.90;;;10.20;99.90;;;;;;6068143;23;20153;-56
2021/06/29 06:25:45;;;;;;;1999.90;999.90;;;10.30;99.90;;;;;;6068549;23;20196;-48
2021/06/29 06:28:12;;;;;;;1999.90;999.90;;;10.50;99.90;;;;;;6068957;23;20577;-46
2021/06/29 06:30:41;;;;;;;1999.90;999.90;;;10.40;99.90;;;;;;6068204;23;20155;-50
2021/06/29 06:33:09;;;;;;;1999.90;999.90;;;10.80;99.90;;;;;;6068278;23;20159;-46
2021/06/29 07:11:42;;;;;;;1999.90;999.90;;;11.10;99.90;;;;;;5107568;27;20484;-52
2021/06/29 07:14:09;;;;;;;1999.90;999.90;;;10.20;99.90;;;;;;5068580;28;20180;-41
2021/06/29 07:16:36;;;;;;;1999.90;999.90;;;10.20;99.90;;;;;;5087728;28;20218;-50
2021/06/29 07:19:03;;;;;;;1999.90;999.90;;;10.20;99.90;;;;;;5087242;28;20172;-57
2021/06/29 07:21:30;;;;;;;1999.90;999.90;;;10.10;99.90;;;;;;5085952;28;20533;-55
2021/06/29 07:23:57;;;;;;;1999.90;999.90;;;10.30;99.90;;;;;;5086723;28;20243;-52
2021/06/29 07:26:25;;;;;;;1999.90;999.90;;;10.30;99.90;;;;;;5068409;28;20290;-57
2021/06/29 07:28:52;;;;;;;1999.90;999.90;;;10.50;99.90;;;;;;5086001;28;20631;-56
2021/06/29 07:31:19;;;;;;;1999.90;999.90;;;10.60;99.90;;;;;;5087024;28;20164;-50
2021/06/29 07:33:47;;;;;;;1999.90;999.90;;;10.70;99.90;;;;;;5086688;28;20264;-48
2021/06/29 07:36:15;;;;;;;1999.90;999.90;;;11.20;99.90;;;;;;5086114;28;20215;-52
2021/06/29 07:38:46;;;;;;;1999.90;999.90;;;11.30;99.90;;;;;;5086820;28;20174;-57
2021/06/29 07:41:14;;;;;;;1999.90;999.90;;;11.20;99.90;;;;;;5086707;28;20671;-54
2021/06/29 07:43:41;;;;;;;1999.90;999.90;;;11.00;99.90;;;;;;5086162;28;20638;-44
2021/06/29 07:46:08;;;;;;;1999.90;999.90;;;11.00;99.90;;;;;;5083987;28;20169;-48
2021/06/29 07:48:35;;;;;;;1999.90;999.90;;;11.00;99.90;;;;;;5073296;28;20165;-51
2021/06/29 07:51:03;;;;;;;1999.90;999.90;;;11.00;99.90;;;;;;5072123;28;20594;-56
2021/06/29 07:53:30;;;;;;;1999.90;999.90;;;11.00;99.90;;;;;;5072528;28;20204;-52
2021/06/29 07:55:57;;;;;;;1999.90;999.90;;;10.90;99.90;;;;;;5072491;28;20201;-56
2021/06/29 07:58:24;;;;;;;1999.90;999.90;;;10.80;99.90;;;;;;5072342;28;20187;-54
2021/06/29 08:00:51;;;;;;;1999.90;999.90;;;10.90;99.90;;;;;;5072223;28;20208;-53
2021/06/29 08:03:17;;;;;;;1999.90;999.90;;;10.90;99.90;;;;;;5072373;28;20196;-48
2021/06/29 08:05:44;;;;;;;1999.90;999.90;;;10.90;99.90;;;;;;5072460;28;20226;-49
2021/06/29 08:08:11;;;;;;;1999.90;999.90;;;10.90;99.90;;;;;;5072053;28;20577;-46
2021/06/29 08:10:38;;;;;;;1999.90;999.90;;;10.90;99.90;;;;;;5071766;28;20694;-44
2021/06/29 08:13:07;;;;;;;1999.90;999.90;;;11.10;99.90;;;;;;5072797;28;20618;-42
2021/06/29 08:15:35;;;;;;;1999.90;999.90;;;11.10;99.90;;;;;;5072443;28;20200;-39
2021/06/29 08:18:01;;;;;;;1999.90;999.90;;;11.20;99.90;;;;;;5072289;28;20233;-41
2021/06/29 08:20:28;;;;;;;1999.90;999.90;;;11.10;99.90;;;;;;5054577;28;20172;-51
2021/06/29 08:22:55;;;;;;;1999.90;999.90;;;11.00;99.90;;;;;;5072731;28;20165;-42
2021/06/29 08:25:24;;;;;;;1999.90;999.90;;;11.00;99.90;;;;;;5072044;28;20221;-59
2021/06/29 08:27:51;;;;;;;1999.90;999.90;;;11.00;99.90;;;;;;5072556;28;20168;-39
2021/06/29 08:30:18;;;;;;;1999.90;999.90;;;11.00;99.90;;;;;;5072534;28;20259;-41
2021/06/29 08:32:45;;;;;;;1999.90;999.90;;;10.90;99.90;;;;;;5071897;28;20179;-56
2021/06/29 08:35:13;;;;;;;1999.90;999.90;;;11.10;99.90;;;;;;5072095;28;20395;-57
2021/06/29 08:37:41;;;;;;;1999.90;999.90;;;11.00;99.90;;;;;;5072286;28;20168;-47
2021/06/29 08:40:10;;;;;;;1999.90;999.90;;;10.80;99.90;;;;;;5071216;28;20585;-42
2021/06/29 08:42:37;;;;;;;1999.90;999.90;;;10.70;99.90;;;;;;5072064;28;20164;-51
2021/06/29 08:45:07;;;;;;;1999.90;999.90;;;10.70;99.90;;;;;;5071990;28;20538;-44
2021/06/29 08:47:35;;;;;;;1999.90;999.90;;;10.70;99.90;;;;;;5071640;28;20248;-45
2021/06/29 08:50:04;;;;;;;1999.90;999.90;;;10.60;99.90;;;;;;5071622;28;20182;-48
2021/06/29 08:52:32;;;;;;;1999.90;999.90;;;10.60;99.90;;;;;;5071859;28;20179;-44
2021/06/29 08:54:58;;;;;;;1999.90;999.90;;;10.50;99.90;;;;;;5070980;28;20243;-45
2021/06/29 08:57:25;;;;;;;1999.90;999.90;;;10.60;99.90;;;;;;5071726;28;20184;-40
2021/06/29 08:59:52;;;;;;;1999.90;999.90;;;10.60;99.90;;;;;;5071101;28;20161;-40
2021/06/29 09:02:19;;;;;;;1999.90;999.90;;;10.50;99.90;;;;;;5071520;28;20172;-40
2021/06/29 09:04:51;;;;;;;1999.90;999.90;;;10.40;99.90;;;;;;5072323;28;20161;-40
2021/06/29 09:07:24;;;;;;;1999.90;999.90;;;10.40;99.90;;;;;;5080132;28;20255;-44
2021/06/29 09:09:54;;;;;;;1999.90;999.90;;;10.40;99.90;;;;;;5091086;28;20323;-42
2021/06/29 09:12:47;;;;;;;1999.90;999.90;;;10.40;99.90;;;;;;5091595;28;20174;-41
2021/06/29 09:15:34;;;;;;;1999.90;999.90;;;10.50;99.90;;;;;;5091374;28;20287;-51
2021/06/29 09:18:07;;;;;;;1999.90;999.90;;;10.50;99.90;;;;;;5073062;28;20202;-45
2021/06/29 09:20:36;;;;;;;1999.90;999.90;;;10.60;99.90;;;;;;5091565;28;20172;-41
2021/06/29 09:23:23;;;;;;;1999.90;999.90;;;10.60;99.90;;;;;;5090400;28;20164;-42
2021/06/29 09:25:53;;;;;;;1999.90;999.90;;;10.70;99.90;;;;;;5091001;28;20225;-50
2021/06/29 09:28:25;;;;;;;1999.90;999.90;;;10.70;99.90;;;;;;5091233;28;20514;-42
2021/06/29 09:31:01;;;;;;;1999.90;999.90;;;10.70;99.90;;;;;;5090380;28;20627;-44
2021/06/29 09:33:32;;;;;;;1999.90;999.90;;;10.70;99.90;;;;;;5091006;28;20167;-43
2021/06/29 09:36:01;;;;;;;1999.90;999.90;;;10.70;99.90;;;;;;5090752;28;20212;-54
2021/06/29 09:38:39;;;;;;;1999.90;999.90;;;10.70;99.90;;;;;;5090588;28;20160;-43
2021/06/29 09:41:11;;;;;;;1999.90;999.90;;;11.00;99.90;;;;;;5072294;28;20226;-43
2021/06/29 09:43:41;;;;;;;1999.90;999.90;;;11.00;99.90;;;;;;5090336;28;20233;-41
2021/06/29 09:46:13;;;;;;;1999.90;999.90;;;11.00;99.90;;;;;;5091113;28;20195;-42
2021/06/29 09:48:53;;;;;;;1999.90;999.90;;;11.10;99.90;;;;;;5091255;28;20164;-41
2021/06/29 09:51:32;;;;;;;1999.90;999.90;;;11.20;99.90;;;;;;5090287;28;20171;-42
2021/06/29 09:54:06;;;;;;;1999.90;999.90;;;11.20;99.90;;;;;;5090722;28;20179;-41
2021/06/29 09:56:40;;;;;;;1999.90;999.90;;;11.40;99.90;;;;;;5091384;28;20218;-42
2021/06/29 09:59:18;;;;;;;1999.90;999.90;;;11.30;99.90;;;;;;5090486;28;20163;-43
2021/06/29 10:01:46;;;;;;;1999.90;999.90;;;11.30;99.90;;;;;;5090301;28;20167;-40
2021/06/29 10:04:13;;;;;;;1999.90;999.90;;;11.40;99.90;;;;;;5091297;28;20164;-46
2021/06/29 10:06:42;;;;;;;1999.90;999.90;;;11.30;99.90;;;;;;5089348;28;20164;-47
2021/06/29 10:09:14;;;;;;;1999.90;999.90;;;11.50;99.90;;;;;;5089636;28;20266;-48
2021/06/29 10:11:46;;;;;;;1999.90;999.90;;;11.40;99.90;;;;;;5090322;28;20164;-57
2021/06/29 10:14:15;;;;;;;1999.90;999.90;;;11.30;99.90;;;;;;5089903;28;20529;-48
2021/06/29 10:16:59;;;;;;;1999.90;999.90;;;11.40;99.90;;;;;;5090231;28;20243;-60
2021/06/29 10:22:05;;;;;;;1999.90;999.90;;;11.50;99.90;;;;;;5090022;28;20164;-45
2021/06/29 10:24:35;;;;;;;1999.90;999.90;;;11.40;99.90;;;;;;5090731;28;20188;-52
2021/06/29 10:27:06;;;;;;;1999.90;999.90;;;11.50;99.90;;;;;;5089587;28;20199;-55
2021/06/29 10:29:33;;;;;;;1999.90;999.90;;;11.40;99.90;;;;;;5079970;28;20163;-47
2021/06/29 10:32:07;;;;;;;1999.90;999.90;;;11.70;99.90;;;;;;5070463;28;20677;-41
2021/06/29 10:34:38;;;;;;;1999.90;999.90;;;11.70;99.90;;;;;;5068823;28;20604;-49
2021/06/29 10:37:06;;;;;;;1999.90;999.90;;;11.70;99.90;;;;;;5069910;28;20156;-44
2021/06/29 10:39:34;;;;;;;1999.90;999.90;;;11.80;99.90;;;;;;5084068;28;20191;-53
2021/06/29 10:42:13;;;;;;;1999.90;999.90;;;11.90;99.90;;;;;;5089168;28;20168;-54
2021/06/29 10:44:50;;;;;;;1999.90;999.90;;;11.90;99.90;;;;;;5090390;28;20167;-48
2021/06/29 10:47:32;;;;;;;1999.90;999.90;;;12.00;99.90;;;;;;5089856;28;20152;-51
2021/06/29 10:50:00;;;;;;;1999.90;999.90;;;12.10;99.90;;;;;;5089664;28;20462;-43
2021/06/29 10:52:27;;;;;;;1999.90;999.90;;;12.20;99.90;;;;;;5090325;28;20618;-47
2021/06/29 10:55:24;;;;;;;1999.90;999.90;;;12.20;99.90;;;;;;5089083;28;20207;-43
2021/06/29 10:57:57;;;;;;;1999.90;999.90;;;12.10;99.90;;;;;;5080002;28;20559;-42
2021/06/29 11:00:27;;;;;;;1999.90;999.90;;;12.10;99.90;;;;;;5090394;28;20217;-42
2021/06/29 11:03:07;;;;;;;1999.90;999.90;;;12.20;99.90;;;;;;5089458;28;20179;-49
2021/06/29 11:05:36;;;;;;;1999.90;999.90;;;12.40;99.90;;;;;;5090333;28;20243;-42
2021/06/29 11:08:23;;;;;;;1999.90;999.90;;;12.30;99.90;;;;;;5090093;28;20176;-49
2021/06/29 11:10:52;;;;;;;1999.90;999.90;;;12.40;99.90;;;;;;5088701;28;20631;-49
2021/06/29 11:13:38;;;;;;;1999.90;999.90;;;13.20;99.90;;;;;;5090335;28;20180;-49
2021/06/29 11:16:06;;;;;;;1999.90;999.90;;;13.90;99.90;;;;;;5089426;28;20678;-52
2021/06/29 11:18:43;;;;;;;1999.90;999.90;;;13.80;99.90;;;;;;5089575;28;20206;-54
2021/06/29 11:21:30;;;;;;;1999.90;999.90;;;13.90;99.90;;;;;;5090193;28;20164;-43
2021/06/29 11:23:57;;;;;;;1999.90;999.90;;;13.90;99.90;;;;;;5092801;28;20176;-48
2021/06/29 11:26:24;;;;;;;1999.90;999.90;;;13.40;99.90;;;;;;5093984;28;20251;-47
2021/06/29 11:29:05;;;;;;;1999.90;999.90;;;13.20;99.90;;;;;;5093633;28;20178;-46
2021/06/29 11:31:33;;;;;;;1999.90;999.90;;;13.40;99.90;;;;;;5092692;28;20160;-44
2021/06/29 11:34:07;;;;;;;1999.90;999.90;;;13.10;99.90;;;;;;5093517;28;20175;-46
2021/06/29 11:36:37;;;;;;;1999.90;999.90;;;13.00;99.90;;;;;;5093038;28;20586;-42
2021/06/29 11:39:16;;;;;;;1999.90;999.90;;;13.00;99.90;;;;;;5092887;28;20164;-48
2021/06/29 11:41:57;;;;;;;1999.90;999.90;;;13.00;99.90;;;;;;5093322;28;20571;-50
2021/06/29 11:44:24;;;;;;;1999.90;999.90;;;13.00;99.90;;;;;;5092994;28;20160;-40
2021/06/29 11:47:02;;;;;;;1999.90;999.90;;;13.00;99.90;;;;;;5092853;28;20176;-43
2021/06/29 11:49:29;;;;;;;1999.90;999.90;;;12.90;99.90;;;;;;5093268;28;20305;-47
2021/06/29 11:51:56;;;;;;;1999.90;999.90;;;13.00;99.90;;;;;;5092591;28;20179;-43
2021/06/29 11:54:38;;;;;;;1999.90;999.90;;;13.00;99.90;;;;;;5093133;28;20506;-46
2021/06/29 11:57:16;;;;;;;1999.90;999.90;;;13.00;99.90;;;;;;5093391;28;20179;-41
2021/06/29 11:59:44;;;;;;;1999.90;999.90;;;13.20;99.90;;;;;;5091541;28;20171;-41
2021/06/29 12:02:16;;;;;;;1999.90;999.90;;;13.20;99.90;;;;;;5093319;28;20199;-41
2021/06/29 12:05:05;;;;;;;1999.90;999.90;;;13.20;99.90;;;;;;5093044;28;20152;-40
2021/06/29 12:07:35;;;;;;;1999.90;999.90;;;13.30;99.90;;;;;;5091723;28;20183;-41
2021/06/29 12:10:32;;;;;;;1999.90;999.90;;;13.30;99.90;;;;;;5092583;28;20575;-43
2021/06/29 12:13:10;;;;;;;1999.90;999.90;;;13.40;99.90;;;;;;5084518;28;20187;-48
2021/06/29 12:15:44;;;;;;;1999.90;999.90;;;13.60;99.90;;;;;;5092218;28;20209;-45
2021/06/29 12:18:13;;;;;;;1999.90;999.90;;;13.80;99.90;;;;;;5093187;28;20156;-47
2021/06/29 12:20:52;;;;;;;1999.90;999.90;;;13.60;99.90;;;;;;5091963;28;20247;-47
2021/06/29 12:23:25;;;;;;;1999.90;999.90;;;13.50;99.90;;;;;;5092454;28;20644;-46
2021/06/29 12:25:57;;;;;;;1999.90;999.90;;;13.50;99.90;;;;;;5092329;28;20160;-50
2021/06/29 12:28:27;;;;;;;1999.90;999.90;;;13.60;99.90;;;;;;5091885;28;20605;-51
2021/06/29 12:31:03;;;;;;;1999.90;999.90;;;13.70;99.90;;;;;;5092704;28;20532;-45
2021/06/29 12:33:34;;;;;;;1999.90;999.90;;;13.80;99.90;;;;;;5092448;28;20559;-44
2021/06/29 12:36:13;;;;;;;1999.90;999.90;;;13.70;99.90;;;;;;5091843;28;20199;-43
2021/06/29 12:38:43;;;;;;;1999.90;999.90;;;13.80;99.90;;;;;;5092107;28;20175;-43
2021/06/29 12:41:24;;;;;;;1999.90;999.90;;;15.00;99.90;;;;;;5092437;28;20199;-43
2021/06/29 12:43:54;;;;;;;1999.90;999.90;;;16.10;99.90;;;;;;5092623;28;20221;-43
2021/06/29 12:46:24;;;;;;;1999.90;999.90;;;16.60;99.90;;;;;;5092330;28;20245;-47
2021/06/29 12:49:09;;;;;;;1999.90;999.90;;;15.50;99.90;;;;;;5091998;28;20160;-45
2021/06/29 12:51:42;;;;;;;1999.90;999.90;;;15.00;99.90;;;;;;5092284;28;20558;-44
2021/06/29 12:54:14;;;;;;;1999.90;999.90;;;14.70;99.90;;;;;;5092290;28;20195;-46